Francisco Romero

Recruteur - Millonarios
19 Août 2027
Jeudi
Processus

Personnalité

Adaptabilité (2) Ambition (3) Controverse (7) Loyauté (19) Pression (8) Professionnalisme (18) Sportivité (19) Tempérament (4)

Profil

Style d'entraînement Démocratique
Diplôme Continental B
Détermination 7
Gestion des joueurs 7
Motivation 10
Discipline 7
Satisfaction professionnelle
84%
Fatigue
0%
Rôle Recruteur
Salaire 79.9K p/s
Contrat 14.03.2028

Performance

Comportement Bon
Efficacité de l'entraînement
37%
Développement des joueurs
65%
Prévention des blessures
65%
Mise en place tactique
35%

Événements récents

A participé à une réunion de recrutement 7j
A recommandé une cible de transfert 7j
A participé à une réunion de recrutement 14j
A recommandé une cible de transfert 14j
A participé à une réunion de recrutement 21j
A recommandé une cible de transfert 21j
A participé à une réunion de recrutement 28j
A recommandé une cible de transfert 28j

Suivi en cours

115
Joueur Club Statut Capacité Confiance Observé Dernière observation Dernier vote
Kevin Tamayo Leones Actif 116 / 105 69% 1 05.07.2027 Approuver
Corey Addai Stockport County Actif 96 / 105 40% 1 31.05.2027 -
Daniel Iversen Preston Actif 142 / 120 40% 1 31.05.2027 -
Aidan Morris Middlesbrough Actif 122 / 127 40% 2 28.05.2027 -
Max Bird Birmingham Actif 132 / 141 40% 2 28.05.2027 -
Adilson Malanda Middlesbrough Actif 126 / 120 40% 1 28.05.2027 -
Ryan Sessegnon Fulham Actif 141 / 159 40% 2 27.05.2027 -
Oliver Skipp Leicester City Actif 122 / 144 40% 1 27.05.2027 -
Brian De Keersmaecker Oxford United Actif 114 / 112 40% 1 27.05.2027 -
Ethan Galbraith Swansea City Actif 123 / 118 40% 3 26.05.2027 -
Lewis Bate Stockport County Actif 119 / 130 40% 1 26.05.2027 -
Harry Clarke Preston Actif 118 / 122 40% 4 22.05.2027 -
Juanlu Bournemouth Actif 157 / 160 40% 2 22.05.2027 -
Leif Davis Ipswich Town Actif 139 / 138 40% 1 22.05.2027 -
Quinten Timber Crystal Palace Actif 158 / 139 40% 2 18.05.2027 -
Shea Charles Southampton Actif 148 / 127 40% 1 18.05.2027 -
Derry Murkin Derby County Actif 120 / 142 40% 1 16.05.2027 -
Ousmane Diomande Nottingham Forest Actif 142 / 160 40% 1 16.05.2027 -
Jacques Ekomié Wrexham Actif 123 / 128 40% 2 15.05.2027 -
Adam Wharton Crystal Palace Actif 149 / 152 40% 2 13.05.2027 -
Yehor Yarmoliuk Brentford Actif 159 / 146 40% 1 13.05.2027 -
Alessandro Buongiorno Sassuolo Actif 148 / 151 40% 2 09.05.2027 -
Noah Sadiki Sunderland Actif 133 / 148 40% 2 09.05.2027 -
Habib Diarra Sunderland Actif 133 / 136 40% 1 07.05.2027 -
Kristoffer Lund Birmingham Actif 119 / 116 40% 1 04.05.2027 -
Williams Manyama SuperSport United Actif 117 / 121 40% 1 24.04.2027 -
Will Fish Cardiff City Actif 111 / 126 40% 1 24.04.2027 -
Kellen Fisher Norwich City Actif 120 / 113 40% 1 24.04.2027 -
Tomás Ribeiro Cultural Leonesa Actif 114 / 126 40% 2 16.04.2027 -
Nathan Collins Brentford Actif 144 / 152 40% 1 14.04.2027 -
Alfie Doughty Millwall Actif 132 / 134 40% 1 11.04.2027 -
Darlin Yongwa Norwich City Actif 121 / 112 40% 1 11.04.2027 -
Rubén Duarte Legia Actif 140 / 145 40% 1 30.11.2026 -
Ross McCrorie Bristol City Actif 122 / 114 40% 1 30.11.2026 -
Santiago González Tigre Actif 126 / 119 40% 3 28.11.2026 -
Rodrigo Herrera Newell's Old Boys Actif 116 / 127 40% 1 28.11.2026 -
Brodie Spencer Oxford United Actif 120 / 115 40% 1 27.11.2026 -
Stefano Moreyra Independiente Rivadavia Actif 115 / 125 40% 1 27.11.2026 -
Ignacio Rodríguez Racing Club Actif 129 / 126 40% 1 27.11.2026 -
Lukáš Červ Viktoria Plzen Actif 128 / 118 40% 1 27.11.2026 -
Israel Reyes CSKA Moscow Actif 130 / 121 40% 1 27.11.2026 -
Facundo Zabala Independiente Actif 119 / 128 40% 1 27.11.2026 -
Emanuel Coronel Rosario Central Actif 125 / 129 40% 3 26.11.2026 -
Iván Villalba Independiente Rivadavia Actif 124 / 112 40% 1 26.11.2026 -
César Ibáñez Huracán Actif 124 / 118 40% 4 24.11.2026 -
Joaquín García Vélez Actif 120 / 134 40% 3 24.11.2026 -
Martín Garay Tigre Actif 115 / 125 40% 1 24.11.2026 -
Martín Ortega Newell's Old Boys Actif 120 / 113 40% 2 23.11.2026 -
Joaquim Tigres Actif 134 / 121 40% 3 22.11.2026 -
Lucas Arce CFR Cluj Actif 126 / 115 40% 1 22.11.2026 -
Adrián Sánchez Belgrano Actif 121 / 122 40% 2 21.11.2026 -
Francisco Álvarez Argentinos Juniors Actif 120 / 129 40% 2 21.11.2026 -
Pedro Vite Pumas UNAM Actif 119 / 114 40% 3 21.11.2026 -
Alan Cervantes Club America Actif 126 / 130 40% 1 21.11.2026 -
Lucas Souto Defensa y Justicia Actif 126 / 120 40% 3 19.11.2026 -
Jackson Porozo Tijuana Actif 111 / 107 40% 2 19.11.2026 -
Pablo Monroy Pumas UNAM Actif 125 / 117 40% 2 19.11.2026 -
Alejandro Gómez Tijuana Actif 118 / 127 40% 1 19.11.2026 -
Cristian Calderón Pumas UNAM Actif 132 / 126 40% 1 19.11.2026 -
Willer Ditta Cruz Azul Actif 143 / 145 40% 1 19.11.2026 -
Mandla Erasmus SuperSport United Actif 131 / 117 40% 1 16.11.2026 -
Ramón Juárez Club America Actif 133 / 131 40% 2 15.11.2026 -
Emanuel Mammana Vélez Actif 137 / 123 40% 1 15.11.2026 -
Erick Reyes Toluca Actif 135 / 131 40% 7 14.11.2026 Observer
Bruno Méndez Toluca Actif 122 / 124 40% 1 13.11.2026 -
Nazareno Colombo Racing Club Actif 122 / 121 40% 2 12.11.2026 -
Jesús Angulo Tigres Actif 131 / 137 40% 1 12.11.2026 -
Gerardo Arteaga Monterrey Actif 122 / 131 40% 1 12.11.2026 -
Omar Campos Cruz Azul Actif 117 / 124 40% 1 10.11.2026 -
Facundo Vila Estudiantes Actif 107 / 106 40% 2 08.11.2026 -
Pablo Bennevendo Pumas UNAM Actif 115 / 121 40% 1 08.11.2026 -
Aarón Mejía Tijuana Actif 114 / 119 40% 1 08.11.2026 -
Lorenzo Palmisani Frosinone Actif 112 / 129 40% 1 08.11.2026 -
Richard Ledezma Guadalajara Actif 140 / 124 40% 2 05.11.2026 -
Gabriel Neves Estudiantes Actif 134 / 124 40% 1 05.11.2026 -
Leandro Lozano Boca Juniors Actif 131 / 116 40% 1 05.11.2026 -
Jhohan Romaña Leon Actif 127 / 138 40% 1 04.11.2026 -
Strahinja Manojlović Radnicki Nis Actif 113 / 119 40% 1 03.11.2026 -
Killian Cahill Leyton Orient Actif 107 / 88 40% 4 02.11.2026 -
Santiago Núñez Estudiantes Actif 122 / 123 40% 2 02.11.2026 -
Manuel Capasso Atlas Actif 130 / 115 40% 1 02.11.2026 -
Radek Vítek Middlesbrough Actif 143 / 134 40% 1 31.10.2026 -
Sebastián Jaume Albion Actif 91 / 107 40% 2 27.10.2026 -
Ángel González Libertad Actif 102 / 97 40% 2 26.10.2026 -
Kostantis Tzolakis Hull City Actif 151 / 129 40% 1 26.10.2026 -
Robin Roefs Sunderland Actif 153 / 125 40% 1 26.10.2026 -
Lautaro Bursich Talleres Actif 95 / 91 40% 2 25.10.2026 -
Jesús Orozco Chiquete Cruz Azul Actif 132 / 139 40% 2 25.10.2026 -
Franco Ibarra Rosario Central Actif 128 / 126 40% 1 25.10.2026 -
Laureano Martínez Talleres Actif 101 / 100 40% 1 24.10.2026 -
Siro Rosané Estudiantes Actif 121 / 108 40% 1 22.10.2026 -
José Florentín Independiente Rivadavia Actif 129 / 115 40% 1 22.10.2026 -
Nahuel Galardi Maipú Actif 112 / 119 40% 1 20.10.2026 -
Ángel Maciel Tacuarembo Actif 103 / 102 40% 1 20.10.2026 -
Jherson Mosquera Newell's Old Boys Actif 130 / 115 40% 1 19.10.2026 -
Adalberto Carrasquilla Pumas UNAM Actif 128 / 137 40% 1 17.10.2026 -
Nicolás Paz San Martín SJ Actif 126 / 122 40% 1 17.10.2026 -
Santiago Simón Toluca Actif 116 / 112 40% 1 09.10.2026 -
Daniel Herrera San Lorenzo Actif 125 / 116 40% 1 09.10.2026 -
Augusto Schott Talleres Actif 117 / 132 40% 1 09.10.2026 -
James Cardona La Equidad Actif 144 / 151 40% 1 08.10.2026 -
Vicente Poggi Godoy Cruz Actif 125 / 132 40% 1 08.10.2026 -
Bruno Antúnez Boston River Actif 108 / 121 40% 1 06.10.2026 -
Juan Carlos Portillo River Plate Actif 126 / 128 40% 1 05.10.2026 -
Felipe Peña Biafore Lanús Actif 121 / 127 40% 1 05.10.2026 -
John Amah Plateau United Actif 87 / 104 40% 1 26.09.2026 -
Vincent Edafe Warri Wolves Actif 88 / 107 40% 1 10.09.2026 -
Ángel Espínola Sportivo Luqueno Actif 95 / 112 40% 3 09.09.2026 -
Facundo Miño Deportivo Riestra Actif 120 / 131 40% 1 09.09.2026 -
Víctor Guzmán Monterrey Actif 138 / 137 40% 1 09.09.2026 -
Isaac Boehmer Vancouver Whitecaps Actif 97 / 109 40% 1 02.09.2026 -
Franco Herrera Viitorul Actif 97 / 114 40% 2 15.08.2026 -
Iván Alejo Valladolid Actif 119 / 110 40% 1 02.08.2026 -
Leonardo Borja La Equidad Actif 137 / 135 40% 1 02.08.2026 -
Joaquín Canadell Quilmes Actif 101 / 102 40% 1 02.08.2026 -